sensor_id;sensor_type;location;lat;lon;timestamp;P1;durP1;ratioP1;P2;durP2;ratioP2
10432;SDS011;5263;48.680;9.004;2023-06-19T00:02:00;5.97;;;4.40;;
10432;SDS011;5263;48.680;9.004;2023-06-19T00:04:26;4.57;;;4.20;;
10432;SDS011;5263;48.680;9.004;2023-06-19T00:06:52;6.90;;;3.80;;
10432;SDS011;5263;48.680;9.004;2023-06-19T00:09:18;4.53;;;4.13;;
10432;SDS011;5263;48.680;9.004;2023-06-19T00:11:44;5.23;;;4.67;;
10432;SDS011;5263;48.680;9.004;2023-06-19T00:14:10;4.03;;;3.73;;
10432;SDS011;5263;48.680;9.004;2023-06-19T00:16:35;4.77;;;4.23;;
10432;SDS011;5263;48.680;9.004;2023-06-19T00:19:01;5.70;;;4.20;;
10432;SDS011;5263;48.680;9.004;2023-06-19T00:21:28;4.10;;;3.80;;
10432;SDS011;5263;48.680;9.004;2023-06-19T00:23:54;3.53;;;3.33;;
10432;SDS011;5263;48.680;9.004;2023-06-19T00:26:20;3.67;;;3.13;;
10432;SDS011;5263;48.680;9.004;2023-06-19T00:28:48;3.40;;;3.17;;
10432;SDS011;5263;48.680;9.004;2023-06-19T00:31:14;3.97;;;3.67;;
10432;SDS011;5263;48.680;9.004;2023-06-19T00:33:41;3.60;;;3.40;;
10432;SDS011;5263;48.680;9.004;2023-06-19T00:36:10;3.43;;;3.23;;
10432;SDS011;5263;48.680;9.004;2023-06-19T00:38:37;3.73;;;3.43;;
10432;SDS011;5263;48.680;9.004;2023-06-19T00:41:03;3.63;;;3.37;;
10432;SDS011;5263;48.680;9.004;2023-06-19T00:43:30;3.83;;;3.63;;
10432;SDS011;5263;48.680;9.004;2023-06-19T00:45:59;4.57;;;4.20;;
10432;SDS011;5263;48.680;9.004;2023-06-19T00:48:26;4.17;;;3.57;;
10432;SDS011;5263;48.680;9.004;2023-06-19T00:50:53;3.00;;;2.83;;
10432;SDS011;5263;48.680;9.004;2023-06-19T00:53:19;4.50;;;3.73;;
10432;SDS011;5263;48.680;9.004;2023-06-19T00:55:45;3.23;;;3.03;;
10432;SDS011;5263;48.680;9.004;2023-06-19T00:58:12;5.00;;;4.50;;
10432;SDS011;5263;48.680;9.004;2023-06-19T01:00:38;3.40;;;3.20;;
10432;SDS011;5263;48.680;9.004;2023-06-19T01:03:04;3.20;;;3.10;;
10432;SDS011;5263;48.680;9.004;2023-06-19T01:05:30;4.07;;;3.70;;
10432;SDS011;5263;48.680;9.004;2023-06-19T01:10:49;4.50;;;4.00;;
10432;SDS011;5263;48.680;9.004;2023-06-19T01:15:55;5.13;;;3.80;;
10432;SDS011;5263;48.680;9.004;2023-06-19T01:18:22;4.13;;;3.77;;
10432;SDS011;5263;48.680;9.004;2023-06-19T01:20:50;4.30;;;4.00;;
10432;SDS011;5263;48.680;9.004;2023-06-19T01:23:15;4.53;;;3.77;;
10432;SDS011;5263;48.680;9.004;2023-06-19T01:25:41;4.07;;;3.83;;
10432;SDS011;5263;48.680;9.004;2023-06-19T01:28:07;3.80;;;3.50;;
10432;SDS011;5263;48.680;9.004;2023-06-19T01:30:37;4.90;;;3.47;;
10432;SDS011;5263;48.680;9.004;2023-06-19T01:33:09;3.53;;;2.80;;
10432;SDS011;5263;48.680;9.004;2023-06-19T01:35:42;3.53;;;3.23;;
10432;SDS011;5263;48.680;9.004;2023-06-19T01:38:10;3.70;;;2.60;;
10432;SDS011;5263;48.680;9.004;2023-06-19T01:40:37;2.67;;;2.53;;
10432;SDS011;5263;48.680;9.004;2023-06-19T01:43:04;3.53;;;3.33;;
10432;SDS011;5263;48.680;9.004;2023-06-19T01:45:32;6.27;;;3.23;;
10432;SDS011;5263;48.680;9.004;2023-06-19T01:47:58;5.17;;;3.57;;
10432;SDS011;5263;48.680;9.004;2023-06-19T01:50:24;3.03;;;2.83;;
10432;SDS011;5263;48.680;9.004;2023-06-19T01:52:50;3.20;;;3.00;;
10432;SDS011;5263;48.680;9.004;2023-06-19T01:55:16;3.47;;;2.80;;
10432;SDS011;5263;48.680;9.004;2023-06-19T01:57:42;2.37;;;2.20;;
10432;SDS011;5263;48.680;9.004;2023-06-19T02:00:08;5.90;;;2.40;;
10432;SDS011;5263;48.680;9.004;2023-06-19T02:02:35;2.60;;;2.23;;
10432;SDS011;5263;48.680;9.004;2023-06-19T02:05:01;2.60;;;2.40;;
10432;SDS011;5263;48.680;9.004;2023-06-19T02:07:27;4.87;;;2.37;;
10432;SDS011;5263;48.680;9.004;2023-06-19T02:09:52;2.67;;;2.47;;
10432;SDS011;5263;48.680;9.004;2023-06-19T02:12:18;2.23;;;2.13;;
10432;SDS011;5263;48.680;9.004;2023-06-19T02:14:44;5.30;;;2.23;;
10432;SDS011;5263;48.680;9.004;2023-06-19T02:17:10;1.87;;;1.77;;
10432;SDS011;5263;48.680;9.004;2023-06-19T02:19:35;2.90;;;2.30;;
10432;SDS011;5263;48.680;9.004;2023-06-19T02:22:01;2.23;;;2.03;;
10432;SDS011;5263;48.680;9.004;2023-06-19T02:24:27;4.70;;;2.33;;
10432;SDS011;5263;48.680;9.004;2023-06-19T02:26:52;2.33;;;2.23;;
10432;SDS011;5263;48.680;9.004;2023-06-19T02:29:18;1.97;;;1.87;;
10432;SDS011;5263;48.680;9.004;2023-06-19T02:31:44;1.87;;;1.77;;
10432;SDS011;5263;48.680;9.004;2023-06-19T02:34:09;3.53;;;2.03;;
10432;SDS011;5263;48.680;9.004;2023-06-19T02:36:35;2.20;;;2.10;;
10432;SDS011;5263;48.680;9.004;2023-06-19T02:39:03;2.00;;;1.77;;
10432;SDS011;5263;48.680;9.004;2023-06-19T02:41:30;1.87;;;1.80;;
10432;SDS011;5263;48.680;9.004;2023-06-19T02:43:56;1.57;;;1.43;;
10432;SDS011;5263;48.680;9.004;2023-06-19T02:46:21;2.60;;;1.67;;
10432;SDS011;5263;48.680;9.004;2023-06-19T02:48:47;1.83;;;1.40;;
10432;SDS011;5263;48.680;9.004;2023-06-19T02:51:12;1.70;;;1.60;;
10432;SDS011;5263;48.680;9.004;2023-06-19T02:53:38;1.70;;;1.50;;
10432;SDS011;5263;48.680;9.004;2023-06-19T02:56:04;3.17;;;1.77;;
10432;SDS011;5263;48.680;9.004;2023-06-19T02:58:30;1.57;;;1.47;;
10432;SDS011;5263;48.680;9.004;2023-06-19T03:00:56;1.73;;;1.63;;
10432;SDS011;5263;48.680;9.004;2023-06-19T03:03:21;1.63;;;1.40;;
10432;SDS011;5263;48.680;9.004;2023-06-19T03:05:47;2.33;;;1.60;;
10432;SDS011;5263;48.680;9.004;2023-06-19T03:08:13;3.63;;;1.27;;
10432;SDS011;5263;48.680;9.004;2023-06-19T03:10:39;4.40;;;1.57;;
10432;SDS011;5263;48.680;9.004;2023-06-19T03:13:04;1.47;;;1.37;;
10432;SDS011;5263;48.680;9.004;2023-06-19T03:15:30;1.10;;;1.10;;
10432;SDS011;5263;48.680;9.004;2023-06-19T03:17:56;1.43;;;1.20;;
10432;SDS011;5263;48.680;9.004;2023-06-19T03:20:21;3.33;;;1.30;;
10432;SDS011;5263;48.680;9.004;2023-06-19T03:22:47;1.30;;;1.30;;
10432;SDS011;5263;48.680;9.004;2023-06-19T03:25:12;1.33;;;1.23;;
10432;SDS011;5263;48.680;9.004;2023-06-19T03:27:38;2.30;;;1.40;;
10432;SDS011;5263;48.680;9.004;2023-06-19T03:30:04;3.17;;;1.53;;
10432;SDS011;5263;48.680;9.004;2023-06-19T03:32:37;1.17;;;1.17;;
10432;SDS011;5263;48.680;9.004;2023-06-19T03:35:03;1.27;;;1.27;;
10432;SDS011;5263;48.680;9.004;2023-06-19T03:37:30;1.70;;;1.60;;
10432;SDS011;5263;48.680;9.004;2023-06-19T03:39:57;1.67;;;1.57;;
10432;SDS011;5263;48.680;9.004;2023-06-19T03:42:23;7.10;;;1.60;;
10432;SDS011;5263;48.680;9.004;2023-06-19T03:44:48;2.77;;;1.50;;
10432;SDS011;5263;48.680;9.004;2023-06-19T03:47:14;1.67;;;1.57;;
10432;SDS011;5263;48.680;9.004;2023-06-19T03:49:41;1.63;;;1.50;;
10432;SDS011;5263;48.680;9.004;2023-06-19T03:52:07;1.57;;;1.47;;
10432;SDS011;5263;48.680;9.004;2023-06-19T03:54:33;1.30;;;1.20;;
10432;SDS011;5263;48.680;9.004;2023-06-19T03:56:58;1.80;;;1.37;;
10432;SDS011;5263;48.680;9.004;2023-06-19T03:59:24;1.53;;;1.43;;
10432;SDS011;5263;48.680;9.004;2023-06-19T04:01:49;1.20;;;1.20;;
10432;SDS011;5263;48.680;9.004;2023-06-19T04:04:15;1.50;;;1.40;;
10432;SDS011;5263;48.680;9.004;2023-06-19T04:06:40;5.07;;;2.00;;
10432;SDS011;5263;48.680;9.004;2023-06-19T04:09:06;1.67;;;1.57;;
10432;SDS011;5263;48.680;9.004;2023-06-19T04:11:32;2.60;;;1.50;;
10432;SDS011;5263;48.680;9.004;2023-06-19T04:13:57;1.73;;;1.63;;
10432;SDS011;5263;48.680;9.004;2023-06-19T04:16:23;1.77;;;1.60;;
10432;SDS011;5263;48.680;9.004;2023-06-19T04:18:48;2.10;;;1.80;;
10432;SDS011;5263;48.680;9.004;2023-06-19T04:21:14;2.27;;;2.17;;
10432;SDS011;5263;48.680;9.004;2023-06-19T04:23:40;3.37;;;1.97;;
10432;SDS011;5263;48.680;9.004;2023-06-19T04:26:05;1.70;;;1.60;;
10432;SDS011;5263;48.680;9.004;2023-06-19T04:28:31;1.90;;;1.80;;
10432;SDS011;5263;48.680;9.004;2023-06-19T04:30:56;3.57;;;1.73;;
10432;SDS011;5263;48.680;9.004;2023-06-19T04:33:28;2.33;;;1.73;;
10432;SDS011;5263;48.680;9.004;2023-06-19T04:35:54;1.80;;;1.70;;
10432;SDS011;5263;48.680;9.004;2023-06-19T04:38:20;2.07;;;1.50;;
10432;SDS011;5263;48.680;9.004;2023-06-19T04:40:49;1.60;;;1.50;;
10432;SDS011;5263;48.680;9.004;2023-06-19T04:43:18;3.30;;;1.73;;
10432;SDS011;5263;48.680;9.004;2023-06-19T04:45:44;2.17;;;1.57;;
10432;SDS011;5263;48.680;9.004;2023-06-19T04:48:10;1.50;;;1.50;;
10432;SDS011;5263;48.680;9.004;2023-06-19T04:50:36;1.70;;;1.60;;
10432;SDS011;5263;48.680;9.004;2023-06-19T04:53:02;2.03;;;1.93;;
10432;SDS011;5263;48.680;9.004;2023-06-19T04:55:27;2.93;;;2.03;;
10432;SDS011;5263;48.680;9.004;2023-06-19T04:57:53;1.80;;;1.70;;
10432;SDS011;5263;48.680;9.004;2023-06-19T05:00:19;1.53;;;1.43;;
10432;SDS011;5263;48.680;9.004;2023-06-19T05:02:48;1.47;;;1.37;;
10432;SDS011;5263;48.680;9.004;2023-06-19T05:05:14;1.70;;;1.60;;
10432;SDS011;5263;48.680;9.004;2023-06-19T05:07:39;1.23;;;1.23;;
10432;SDS011;5263;48.680;9.004;2023-06-19T05:10:05;3.13;;;1.90;;
10432;SDS011;5263;48.680;9.004;2023-06-19T05:12:32;0.90;;;0.90;;
10432;SDS011;5263;48.680;9.004;2023-06-19T05:14:58;1.10;;;1.10;;
10432;SDS011;5263;48.680;9.004;2023-06-19T05:17:24;1.77;;;1.40;;
10432;SDS011;5263;48.680;9.004;2023-06-19T05:19:49;1.33;;;1.30;;
10432;SDS011;5263;48.680;9.004;2023-06-19T05:22:15;1.37;;;1.27;;
10432;SDS011;5263;48.680;9.004;2023-06-19T05:24:43;1.30;;;1.30;;
10432;SDS011;5263;48.680;9.004;2023-06-19T05:27:09;1.20;;;1.10;;
10432;SDS011;5263;48.680;9.004;2023-06-19T05:29:34;1.13;;;1.13;;
10432;SDS011;5263;48.680;9.004;2023-06-19T05:32:00;1.33;;;1.23;;
10432;SDS011;5263;48.680;9.004;2023-06-19T05:34:25;2.47;;;1.53;;
10432;SDS011;5263;48.680;9.004;2023-06-19T05:36:51;1.27;;;1.13;;
10432;SDS011;5263;48.680;9.004;2023-06-19T05:39:16;1.40;;;1.40;;
10432;SDS011;5263;48.680;9.004;2023-06-19T05:41:43;1.23;;;1.13;;
10432;SDS011;5263;48.680;9.004;2023-06-19T05:44:10;1.10;;;1.10;;
10432;SDS011;5263;48.680;9.004;2023-06-19T05:46:40;1.37;;;1.27;;
10432;SDS011;5263;48.680;9.004;2023-06-19T05:49:06;1.10;;;1.07;;
10432;SDS011;5263;48.680;9.004;2023-06-19T05:51:32;1.10;;;1.10;;
10432;SDS011;5263;48.680;9.004;2023-06-19T05:53:57;1.73;;;1.10;;
10432;SDS011;5263;48.680;9.004;2023-06-19T05:56:28;1.10;;;1.00;;
10432;SDS011;5263;48.680;9.004;2023-06-19T05:58:58;1.37;;;1.20;;
10432;SDS011;5263;48.680;9.004;2023-06-19T06:01:24;1.77;;;1.10;;
10432;SDS011;5263;48.680;9.004;2023-06-19T06:03:53;1.97;;;0.87;;
10432;SDS011;5263;48.680;9.004;2023-06-19T06:06:19;1.33;;;0.93;;
10432;SDS011;5263;48.680;9.004;2023-06-19T06:08:44;1.10;;;1.10;;
10432;SDS011;5263;48.680;9.004;2023-06-19T06:11:10;2.30;;;0.93;;
10432;SDS011;5263;48.680;9.004;2023-06-19T06:13:36;1.17;;;1.07;;
10432;SDS011;5263;48.680;9.004;2023-06-19T06:16:01;1.53;;;0.83;;
10432;SDS011;5263;48.680;9.004;2023-06-19T06:18:27;0.90;;;0.87;;
10432;SDS011;5263;48.680;9.004;2023-06-19T06:20:52;0.80;;;0.80;;
10432;SDS011;5263;48.680;9.004;2023-06-19T06:23:18;1.63;;;1.50;;
10432;SDS011;5263;48.680;9.004;2023-06-19T06:25:43;0.93;;;0.93;;
10432;SDS011;5263;48.680;9.004;2023-06-19T06:28:10;5.90;;;1.10;;
10432;SDS011;5263;48.680;9.004;2023-06-19T06:30:36;1.60;;;1.10;;
10432;SDS011;5263;48.680;9.004;2023-06-19T06:33:02;0.93;;;0.93;;
10432;SDS011;5263;48.680;9.004;2023-06-19T06:35:27;1.00;;;0.90;;
10432;SDS011;5263;48.680;9.004;2023-06-19T06:37:53;1.03;;;1.03;;
10432;SDS011;5263;48.680;9.004;2023-06-19T06:40:19;1.13;;;1.07;;
10432;SDS011;5263;48.680;9.004;2023-06-19T06:42:44;0.97;;;0.97;;
10432;SDS011;5263;48.680;9.004;2023-06-19T06:45:10;0.80;;;0.80;;
10432;SDS011;5263;48.680;9.004;2023-06-19T06:47:35;0.90;;;0.90;;
10432;SDS011;5263;48.680;9.004;2023-06-19T06:50:01;2.23;;;1.23;;
10432;SDS011;5263;48.680;9.004;2023-06-19T06:52:27;3.40;;;1.30;;
10432;SDS011;5263;48.680;9.004;2023-06-19T06:54:53;1.00;;;1.00;;
10432;SDS011;5263;48.680;9.004;2023-06-19T06:57:18;1.63;;;0.87;;
10432;SDS011;5263;48.680;9.004;2023-06-19T06:59:44;2.10;;;0.80;;
10432;SDS011;5263;48.680;9.004;2023-06-19T07:02:10;1.00;;;1.00;;
10432;SDS011;5263;48.680;9.004;2023-06-19T07:04:35;1.00;;;0.97;;
10432;SDS011;5263;48.680;9.004;2023-06-19T07:07:01;2.83;;;1.37;;
10432;SDS011;5263;48.680;9.004;2023-06-19T07:09:28;1.20;;;1.10;;
10432;SDS011;5263;48.680;9.004;2023-06-19T07:11:54;0.80;;;0.80;;
10432;SDS011;5263;48.680;9.004;2023-06-19T07:14:20;1.00;;;1.00;;
10432;SDS011;5263;48.680;9.004;2023-06-19T07:16:45;0.90;;;0.90;;
10432;SDS011;5263;48.680;9.004;2023-06-19T07:19:11;1.20;;;1.00;;
10432;SDS011;5263;48.680;9.004;2023-06-19T07:21:37;1.10;;;1.10;;
10432;SDS011;5263;48.680;9.004;2023-06-19T07:24:04;1.57;;;1.20;;
10432;SDS011;5263;48.680;9.004;2023-06-19T07:26:30;1.10;;;1.00;;
10432;SDS011;5263;48.680;9.004;2023-06-19T07:28:56;1.07;;;0.93;;
10432;SDS011;5263;48.680;9.004;2023-06-19T07:31:21;5.90;;;1.20;;
10432;SDS011;5263;48.680;9.004;2023-06-19T07:33:47;2.93;;;1.10;;
10432;SDS011;5263;48.680;9.004;2023-06-19T07:36:13;1.73;;;1.20;;
10432;SDS011;5263;48.680;9.004;2023-06-19T07:38:42;1.07;;;1.00;;
10432;SDS011;5263;48.680;9.004;2023-06-19T07:41:08;1.43;;;1.33;;
10432;SDS011;5263;48.680;9.004;2023-06-19T07:43:35;1.47;;;1.30;;
10432;SDS011;5263;48.680;9.004;2023-06-19T07:46:01;2.03;;;1.30;;
10432;SDS011;5263;48.680;9.004;2023-06-19T07:48:27;1.90;;;1.60;;
10432;SDS011;5263;48.680;9.004;2023-06-19T07:50:53;1.50;;;1.50;;
10432;SDS011;5263;48.680;9.004;2023-06-19T07:53:18;1.60;;;1.03;;
10432;SDS011;5263;48.680;9.004;2023-06-19T07:55:44;1.70;;;1.47;;
10432;SDS011;5263;48.680;9.004;2023-06-19T07:58:10;1.80;;;1.70;;
10432;SDS011;5263;48.680;9.004;2023-06-19T08:00:35;3.57;;;1.67;;
10432;SDS011;5263;48.680;9.004;2023-06-19T08:03:01;4.73;;;1.50;;
10432;SDS011;5263;48.680;9.004;2023-06-19T08:05:27;1.70;;;1.60;;
10432;SDS011;5263;48.680;9.004;2023-06-19T08:07:52;1.67;;;1.57;;
10432;SDS011;5263;48.680;9.004;2023-06-19T08:10:18;2.23;;;1.97;;
10432;SDS011;5263;48.680;9.004;2023-06-19T08:12:44;1.23;;;1.13;;
10432;SDS011;5263;48.680;9.004;2023-06-19T08:15:10;2.97;;;1.73;;
10432;SDS011;5263;48.680;9.004;2023-06-19T08:17:38;2.00;;;1.70;;
10432;SDS011;5263;48.680;9.004;2023-06-19T08:20:04;3.03;;;1.50;;
10432;SDS011;5263;48.680;9.004;2023-06-19T08:22:30;1.70;;;1.30;;
10432;SDS011;5263;48.680;9.004;2023-06-19T08:24:56;1.77;;;1.67;;
10432;SDS011;5263;48.680;9.004;2023-06-19T08:27:22;3.77;;;1.43;;
10432;SDS011;5263;48.680;9.004;2023-06-19T08:29:47;1.43;;;1.33;;
10432;SDS011;5263;48.680;9.004;2023-06-19T08:32:13;1.10;;;1.10;;
10432;SDS011;5263;48.680;9.004;2023-06-19T08:34:38;1.50;;;1.40;;
10432;SDS011;5263;48.680;9.004;2023-06-19T08:37:05;1.43;;;1.30;;
10432;SDS011;5263;48.680;9.004;2023-06-19T08:39:31;1.33;;;1.33;;
10432;SDS011;5263;48.680;9.004;2023-06-19T08:41:56;2.77;;;1.30;;
10432;SDS011;5263;48.680;9.004;2023-06-19T08:44:22;1.50;;;1.40;;
10432;SDS011;5263;48.680;9.004;2023-06-19T08:46:48;1.10;;;1.10;;
10432;SDS011;5263;48.680;9.004;2023-06-19T08:49:13;1.43;;;1.30;;
10432;SDS011;5263;48.680;9.004;2023-06-19T08:51:39;4.30;;;1.40;;
10432;SDS011;5263;48.680;9.004;2023-06-19T08:54:06;1.60;;;1.50;;
10432;SDS011;5263;48.680;9.004;2023-06-19T08:56:33;2.90;;;1.40;;
10432;SDS011;5263;48.680;9.004;2023-06-19T08:59:16;2.30;;;1.27;;
10432;SDS011;5263;48.680;9.004;2023-06-19T09:01:52;1.17;;;1.00;;
10432;SDS011;5263;48.680;9.004;2023-06-19T09:04:20;1.70;;;0.90;;
10432;SDS011;5263;48.680;9.004;2023-06-19T09:06:51;3.83;;;1.30;;
10432;SDS011;5263;48.680;9.004;2023-06-19T09:09:30;1.97;;;1.10;;
10432;SDS011;5263;48.680;9.004;2023-06-19T09:14:46;3.03;;;1.10;;
10432;SDS011;5263;48.680;9.004;2023-06-19T09:17:13;1.20;;;1.20;;
10432;SDS011;5263;48.680;9.004;2023-06-19T09:19:51;2.70;;;1.27;;
10432;SDS011;5263;48.680;9.004;2023-06-19T09:22:18;1.10;;;1.00;;
10432;SDS011;5263;48.680;9.004;2023-06-19T09:24:45;1.17;;;1.10;;
10432;SDS011;5263;48.680;9.004;2023-06-19T09:27:18;1.43;;;1.10;;
10432;SDS011;5263;48.680;9.004;2023-06-19T09:29:45;1.10;;;1.10;;
10432;SDS011;5263;48.680;9.004;2023-06-19T09:32:22;1.37;;;1.27;;
10432;SDS011;5263;48.680;9.004;2023-06-19T09:34:51;2.60;;;1.20;;
10432;SDS011;5263;48.680;9.004;2023-06-19T09:37:39;1.10;;;1.10;;
10432;SDS011;5263;48.680;9.004;2023-06-19T09:40:05;2.73;;;1.40;;
10432;SDS011;5263;48.680;9.004;2023-06-19T09:42:35;2.90;;;1.07;;
10432;SDS011;5263;48.680;9.004;2023-06-19T09:45:06;1.17;;;0.97;;
10432;SDS011;5263;48.680;9.004;2023-06-19T09:47:42;0.93;;;0.93;;
10432;SDS011;5263;48.680;9.004;2023-06-19T09:50:11;1.67;;;1.23;;
10432;SDS011;5263;48.680;9.004;2023-06-19T09:52:41;1.33;;;1.00;;
10432;SDS011;5263;48.680;9.004;2023-06-19T09:55:11;1.03;;;1.03;;
10432;SDS011;5263;48.680;9.004;2023-06-19T09:58:06;1.33;;;0.70;;
10432;SDS011;5263;48.680;9.004;2023-06-19T10:00:35;1.73;;;1.03;;
10432;SDS011;5263;48.680;9.004;2023-06-19T10:03:02;3.43;;;1.10;;
10432;SDS011;5263;48.680;9.004;2023-06-19T10:05:30;1.10;;;1.10;;
10432;SDS011;5263;48.680;9.004;2023-06-19T10:07:57;1.90;;;0.70;;
10432;SDS011;5263;48.680;9.004;2023-06-19T10:10:27;2.03;;;0.70;;
10432;SDS011;5263;48.680;9.004;2023-06-19T10:12:54;1.70;;;1.00;;
10432;SDS011;5263;48.680;9.004;2023-06-19T10:15:23;2.13;;;0.77;;
10432;SDS011;5263;48.680;9.004;2023-06-19T10:17:51;1.80;;;0.80;;
10432;SDS011;5263;48.680;9.004;2023-06-19T10:20:35;3.73;;;0.93;;
10432;SDS011;5263;48.680;9.004;2023-06-19T10:23:16;1.00;;;0.90;;
10432;SDS011;5263;48.680;9.004;2023-06-19T10:28:22;0.90;;;0.90;;
10432;SDS011;5263;48.680;9.004;2023-06-19T10:31:04;2.63;;;1.00;;
10432;SDS011;5263;48.680;9.004;2023-06-19T10:33:32;1.10;;;1.10;;
10432;SDS011;5263;48.680;9.004;2023-06-19T10:35:59;0.80;;;0.80;;
10432;SDS011;5263;48.680;9.004;2023-06-19T10:38:26;1.10;;;1.10;;
10432;SDS011;5263;48.680;9.004;2023-06-19T10:40:52;1.30;;;1.30;;
10432;SDS011;5263;48.680;9.004;2023-06-19T10:43:24;2.53;;;1.17;;
10432;SDS011;5263;48.680;9.004;2023-06-19T10:45:55;0.97;;;0.97;;
10432;SDS011;5263;48.680;9.004;2023-06-19T10:48:23;1.10;;;1.10;;
10432;SDS011;5263;48.680;9.004;2023-06-19T10:50:49;1.15;;;1.00;;
10432;SDS011;5263;48.680;9.004;2023-06-19T10:53:25;1.50;;;1.30;;
10432;SDS011;5263;48.680;9.004;2023-06-19T10:55:58;2.40;;;1.00;;
10432;SDS011;5263;48.680;9.004;2023-06-19T10:58:25;0.90;;;0.90;;
10432;SDS011;5263;48.680;9.004;2023-06-19T11:00:52;2.42;;;1.20;;
10432;SDS011;5263;48.680;9.004;2023-06-19T11:03:18;1.40;;;1.30;;
10432;SDS011;5263;48.680;9.004;2023-06-19T11:05:45;1.90;;;1.25;;
10432;SDS011;5263;48.680;9.004;2023-06-19T11:08:16;1.20;;;1.20;;
10432;SDS011;5263;48.680;9.004;2023-06-19T11:10:43;1.40;;;1.30;;
10432;SDS011;5263;48.680;9.004;2023-06-19T11:13:12;1.70;;;1.60;;
10432;SDS011;5263;48.680;9.004;2023-06-19T11:15:39;4.55;;;1.60;;
10432;SDS011;5263;48.680;9.004;2023-06-19T11:18:05;1.30;;;1.20;;
10432;SDS011;5263;48.680;9.004;2023-06-19T11:20:30;5.05;;;1.83;;
10432;SDS011;5263;48.680;9.004;2023-06-19T11:22:57;4.40;;;1.38;;
10432;SDS011;5263;48.680;9.004;2023-06-19T11:25:45;1.23;;;1.13;;
10432;SDS011;5263;48.680;9.004;2023-06-19T11:28:11;2.08;;;1.98;;
10432;SDS011;5263;48.680;9.004;2023-06-19T11:30:38;1.63;;;1.53;;
10432;SDS011;5263;48.680;9.004;2023-06-19T11:33:14;2.20;;;2.10;;
10432;SDS011;5263;48.680;9.004;2023-06-19T11:35:40;1.97;;;1.40;;
10432;SDS011;5263;48.680;9.004;2023-06-19T11:38:15;2.57;;;1.77;;
10432;SDS011;5263;48.680;9.004;2023-06-19T11:40:42;5.83;;;2.40;;
10432;SDS011;5263;48.680;9.004;2023-06-19T11:43:08;1.70;;;1.60;;
10432;SDS011;5263;48.680;9.004;2023-06-19T11:45:44;1.80;;;1.70;;
10432;SDS011;5263;48.680;9.004;2023-06-19T11:48:10;2.03;;;1.50;;
10432;SDS011;5263;48.680;9.004;2023-06-19T11:50:37;1.80;;;1.70;;
10432;SDS011;5263;48.680;9.004;2023-06-19T11:53:03;1.40;;;1.40;;
10432;SDS011;5263;48.680;9.004;2023-06-19T11:55:29;1.80;;;1.70;;
10432;SDS011;5263;48.680;9.004;2023-06-19T11:57:54;1.30;;;1.20;;
10432;SDS011;5263;48.680;9.004;2023-06-19T12:00:20;2.25;;;1.27;;
10432;SDS011;5263;48.680;9.004;2023-06-19T12:02:46;1.30;;;1.30;;
10432;SDS011;5263;48.680;9.004;2023-06-19T12:05:12;1.85;;;1.75;;
10432;SDS011;5263;48.680;9.004;2023-06-19T12:07:39;1.20;;;1.20;;
10432;SDS011;5263;48.680;9.004;2023-06-19T12:10:04;2.53;;;1.83;;
10432;SDS011;5263;48.680;9.004;2023-06-19T12:12:35;3.15;;;1.77;;
10432;SDS011;5263;48.680;9.004;2023-06-19T12:15:01;1.65;;;1.48;;
10432;SDS011;5263;48.680;9.004;2023-06-19T12:17:27;2.67;;;1.52;;
10432;SDS011;5263;48.680;9.004;2023-06-19T12:19:54;2.42;;;1.42;;
10432;SDS011;5263;48.680;9.004;2023-06-19T12:22:19;3.53;;;1.60;;
10432;SDS011;5263;48.680;9.004;2023-06-19T12:24:45;2.20;;;1.48;;
10432;SDS011;5263;48.680;9.004;2023-06-19T12:27:11;1.05;;;1.05;;
10432;SDS011;5263;48.680;9.004;2023-06-19T12:29:36;2.17;;;1.30;;
10432;SDS011;5263;48.680;9.004;2023-06-19T12:32:02;3.30;;;1.30;;
10432;SDS011;5263;48.680;9.004;2023-06-19T12:34:28;1.50;;;1.50;;
10432;SDS011;5263;48.680;9.004;2023-06-19T12:36:54;2.45;;;1.30;;
10432;SDS011;5263;48.680;9.004;2023-06-19T12:39:22;3.45;;;1.35;;
10432;SDS011;5263;48.680;9.004;2023-06-19T12:41:48;1.70;;;1.60;;
10432;SDS011;5263;48.680;9.004;2023-06-19T12:44:13;2.90;;;1.30;;
10432;SDS011;5263;48.680;9.004;2023-06-19T12:46:39;1.30;;;1.20;;
10432;SDS011;5263;48.680;9.004;2023-06-19T12:49:04;3.03;;;1.40;;
10432;SDS011;5263;48.680;9.004;2023-06-19T12:51:30;3.08;;;1.25;;
10432;SDS011;5263;48.680;9.004;2023-06-19T12:53:56;1.67;;;1.58;;
10432;SDS011;5263;48.680;9.004;2023-06-19T12:56:21;4.40;;;1.98;;
10432;SDS011;5263;48.680;9.004;2023-06-19T12:58:47;1.95;;;1.85;;
10432;SDS011;5263;48.680;9.004;2023-06-19T13:01:12;4.63;;;1.58;;
10432;SDS011;5263;48.680;9.004;2023-06-19T13:03:38;9.77;;;1.83;;
10432;SDS011;5263;48.680;9.004;2023-06-19T13:06:03;2.88;;;1.80;;
10432;SDS011;5263;48.680;9.004;2023-06-19T13:08:29;1.45;;;1.45;;
10432;SDS011;5263;48.680;9.004;2023-06-19T13:10:55;3.55;;;1.33;;
10432;SDS011;5263;48.680;9.004;2023-06-19T13:13:20;1.40;;;1.40;;
10432;SDS011;5263;48.680;9.004;2023-06-19T13:15:46;1.30;;;1.30;;
10432;SDS011;5263;48.680;9.004;2023-06-19T13:18:12;5.88;;;1.38;;
10432;SDS011;5263;48.680;9.004;2023-06-19T13:20:37;1.52;;;1.42;;
10432;SDS011;5263;48.680;9.004;2023-06-19T13:23:03;1.75;;;1.65;;
10432;SDS011;5263;48.680;9.004;2023-06-19T13:25:28;1.33;;;1.23;;
10432;SDS011;5263;48.680;9.004;2023-06-19T13:27:54;2.50;;;1.20;;
10432;SDS011;5263;48.680;9.004;2023-06-19T13:30:20;12.82;;;1.38;;
10432;SDS011;5263;48.680;9.004;2023-06-19T13:32:45;0.98;;;0.98;;
10432;SDS011;5263;48.680;9.004;2023-06-19T13:35:11;1.70;;;1.60;;
10432;SDS011;5263;48.680;9.004;2023-06-19T13:37:37;1.65;;;1.52;;
10432;SDS011;5263;48.680;9.004;2023-06-19T13:40:06;1.58;;;1.48;;
10432;SDS011;5263;48.680;9.004;2023-06-19T13:42:32;1.52;;;1.42;;
10432;SDS011;5263;48.680;9.004;2023-06-19T13:45:00;1.42;;;1.42;;
10432;SDS011;5263;48.680;9.004;2023-06-19T13:47:27;1.77;;;1.70;;
10432;SDS011;5263;48.680;9.004;2023-06-19T13:49:53;2.90;;;1.90;;
10432;SDS011;5263;48.680;9.004;2023-06-19T13:52:18;1.55;;;1.52;;
10432;SDS011;5263;48.680;9.004;2023-06-19T13:54:44;1.15;;;1.15;;
10432;SDS011;5263;48.680;9.004;2023-06-19T13:57:09;1.90;;;1.80;;
10432;SDS011;5263;48.680;9.004;2023-06-19T13:59:35;2.58;;;1.50;;
10432;SDS011;5263;48.680;9.004;2023-06-19T14:02:01;2.13;;;1.20;;
10432;SDS011;5263;48.680;9.004;2023-06-19T14:04:26;2.92;;;1.45;;
10432;SDS011;5263;48.680;9.004;2023-06-19T14:06:52;1.65;;;1.42;;
10432;SDS011;5263;48.680;9.004;2023-06-19T14:09:19;2.55;;;1.17;;
10432;SDS011;5263;48.680;9.004;2023-06-19T14:11:45;1.77;;;1.30;;
10432;SDS011;5263;48.680;9.004;2023-06-19T14:14:11;2.10;;;1.42;;
10432;SDS011;5263;48.680;9.004;2023-06-19T14:16:37;2.28;;;1.33;;
10432;SDS011;5263;48.680;9.004;2023-06-19T14:19:02;2.47;;;1.73;;
10432;SDS011;5263;48.680;9.004;2023-06-19T14:21:28;1.23;;;1.13;;
10432;SDS011;5263;48.680;9.004;2023-06-19T14:23:55;1.23;;;1.13;;
10432;SDS011;5263;48.680;9.004;2023-06-19T14:26:21;1.15;;;1.15;;
10432;SDS011;5263;48.680;9.004;2023-06-19T14:28:46;1.20;;;1.20;;
10432;SDS011;5263;48.680;9.004;2023-06-19T14:31:12;1.83;;;1.02;;
10432;SDS011;5263;48.680;9.004;2023-06-19T14:33:38;1.33;;;1.33;;
10432;SDS011;5263;48.680;9.004;2023-06-19T14:36:04;3.70;;;1.73;;
10432;SDS011;5263;48.680;9.004;2023-06-19T14:38:30;1.40;;;1.30;;
10432;SDS011;5263;48.680;9.004;2023-06-19T14:40:59;1.23;;;1.13;;
10432;SDS011;5263;48.680;9.004;2023-06-19T14:43:25;2.15;;;1.55;;
10432;SDS011;5263;48.680;9.004;2023-06-19T14:45:51;1.48;;;1.48;;
10432;SDS011;5263;48.680;9.004;2023-06-19T14:48:17;1.30;;;1.30;;
10432;SDS011;5263;48.680;9.004;2023-06-19T14:50:43;1.23;;;1.23;;
10432;SDS011;5263;48.680;9.004;2023-06-19T14:53:08;1.45;;;1.40;;
10432;SDS011;5263;48.680;9.004;2023-06-19T14:55:34;1.50;;;1.40;;
10432;SDS011;5263;48.680;9.004;2023-06-19T14:58:00;1.23;;;1.23;;
10432;SDS011;5263;48.680;9.004;2023-06-19T15:00:25;2.80;;;1.30;;
10432;SDS011;5263;48.680;9.004;2023-06-19T15:02:51;2.72;;;1.70;;
10432;SDS011;5263;48.680;9.004;2023-06-19T15:05:17;1.00;;;1.00;;
10432;SDS011;5263;48.680;9.004;2023-06-19T15:07:42;1.50;;;1.40;;
10432;SDS011;5263;48.680;9.004;2023-06-19T15:10:08;3.10;;;1.42;;